sensor_id;sensor_type;location;lat;lon;timestamp;temperature;humidity
20102;DHT22;10210;52.284;9.892;2024-03-08T00:00:08;6.00;99.90
20102;DHT22;10210;52.284;9.892;2024-03-08T00:02:40;6.00;99.90
20102;DHT22;10210;52.284;9.892;2024-03-08T00:05:09;6.00;99.90
20102;DHT22;10210;52.284;9.892;2024-03-08T00:07:35;6.00;99.90
20102;DHT22;10210;52.284;9.892;2024-03-08T00:10:10;6.00;99.90
20102;DHT22;10210;52.284;9.892;2024-03-08T00:12:40;6.00;99.90
20102;DHT22;10210;52.284;9.892;2024-03-08T00:15:10;6.00;99.90
20102;DHT22;10210;52.284;9.892;2024-03-08T00:17:42;5.90;99.90
20102;DHT22;10210;52.284;9.892;2024-03-08T00:20:09;5.90;99.90
20102;DHT22;10210;52.284;9.892;2024-03-08T00:22:39;5.90;99.90
20102;DHT22;10210;52.284;9.892;2024-03-08T00:25:05;5.80;99.90
20102;DHT22;10210;52.284;9.892;2024-03-08T00:27:35;5.80;99.90
20102;DHT22;10210;52.284;9.892;2024-03-08T00:30:01;5.80;99.90
20102;DHT22;10210;52.284;9.892;2024-03-08T00:32:27;5.70;99.90
20102;DHT22;10210;52.284;9.892;2024-03-08T00:34:53;5.70;99.90
20102;DHT22;10210;52.284;9.892;2024-03-08T00:37:21;5.70;99.90
20102;DHT22;10210;52.284;9.892;2024-03-08T00:39:50;5.60;99.90
20102;DHT22;10210;52.284;9.892;2024-03-08T00:42:18;5.60;99.90
20102;DHT22;10210;52.284;9.892;2024-03-08T00:44:45;5.60;99.90
20102;DHT22;10210;52.284;9.892;2024-03-08T00:47:11;5.50;99.90
20102;DHT22;10210;52.284;9.892;2024-03-08T00:49:37;5.50;99.90
20102;DHT22;10210;52.284;9.892;2024-03-08T00:52:06;5.50;99.90
20102;DHT22;10210;52.284;9.892;2024-03-08T00:54:32;5.40;99.90
20102;DHT22;10210;52.284;9.892;2024-03-08T00:56:58;5.40;99.90
20102;DHT22;10210;52.284;9.892;2024-03-08T00:59:28;5.40;99.90
20102;DHT22;10210;52.284;9.892;2024-03-08T01:02:00;5.30;99.90
20102;DHT22;10210;52.284;9.892;2024-03-08T01:04:27;5.30;99.90
20102;DHT22;10210;52.284;9.892;2024-03-08T01:06:56;5.20;99.90
20102;DHT22;10210;52.284;9.892;2024-03-08T01:09:26;5.20;99.90
20102;DHT22;10210;52.284;9.892;2024-03-08T01:11:52;5.20;99.90
20102;DHT22;10210;52.284;9.892;2024-03-08T01:14:21;5.10;99.90
20102;DHT22;10210;52.284;9.892;2024-03-08T01:16:48;5.10;99.90
20102;DHT22;10210;52.284;9.892;2024-03-08T01:19:15;5.10;99.90
20102;DHT22;10210;52.284;9.892;2024-03-08T01:21:41;5.10;99.90
20102;DHT22;10210;52.284;9.892;2024-03-08T01:24:07;5.00;99.90
20102;DHT22;10210;52.284;9.892;2024-03-08T01:26:33;5.10;99.90
20102;DHT22;10210;52.284;9.892;2024-03-08T01:29:02;5.10;99.90
20102;DHT22;10210;52.284;9.892;2024-03-08T01:31:29;5.10;99.90
20102;DHT22;10210;52.284;9.892;2024-03-08T01:33:57;5.10;99.90
20102;DHT22;10210;52.284;9.892;2024-03-08T01:36:24;5.10;99.90
20102;DHT22;10210;52.284;9.892;2024-03-08T01:38:50;5.10;99.90
20102;DHT22;10210;52.284;9.892;2024-03-08T01:41:17;5.10;99.90
20102;DHT22;10210;52.284;9.892;2024-03-08T01:43:43;5.10;99.90
20102;DHT22;10210;52.284;9.892;2024-03-08T01:46:11;5.10;99.90
20102;DHT22;10210;52.284;9.892;2024-03-08T01:48:40;5.10;99.90
20102;DHT22;10210;52.284;9.892;2024-03-08T01:51:06;5.00;99.90
20102;DHT22;10210;52.284;9.892;2024-03-08T01:53:33;5.00;99.90
20102;DHT22;10210;52.284;9.892;2024-03-08T01:56:00;5.00;99.90
20102;DHT22;10210;52.284;9.892;2024-03-08T01:58:29;5.00;99.90
20102;DHT22;10210;52.284;9.892;2024-03-08T02:00:59;5.00;99.90
20102;DHT22;10210;52.284;9.892;2024-03-08T02:03:25;4.90;99.90
20102;DHT22;10210;52.284;9.892;2024-03-08T02:05:51;4.90;99.90
20102;DHT22;10210;52.284;9.892;2024-03-08T02:08:17;4.90;99.90
20102;DHT22;10210;52.284;9.892;2024-03-08T02:10:44;4.90;99.90
20102;DHT22;10210;52.284;9.892;2024-03-08T02:13:11;4.90;99.90
20102;DHT22;10210;52.284;9.892;2024-03-08T02:15:56;4.90;99.90
20102;DHT22;10210;52.284;9.892;2024-03-08T02:18:27;4.80;99.90
20102;DHT22;10210;52.284;9.892;2024-03-08T02:21:01;4.80;99.90
20102;DHT22;10210;52.284;9.892;2024-03-08T02:23:29;4.80;99.90
20102;DHT22;10210;52.284;9.892;2024-03-08T02:25:57;4.80;99.90
20102;DHT22;10210;52.284;9.892;2024-03-08T02:28:24;4.80;99.90
20102;DHT22;10210;52.284;9.892;2024-03-08T02:30:54;4.80;99.90
20102;DHT22;10210;52.284;9.892;2024-03-08T02:33:21;4.80;99.90
20102;DHT22;10210;52.284;9.892;2024-03-08T02:35:48;4.80;99.90
20102;DHT22;10210;52.284;9.892;2024-03-08T02:38:18;4.80;99.90
20102;DHT22;10210;52.284;9.892;2024-03-08T02:40:50;4.80;99.90
20102;DHT22;10210;52.284;9.892;2024-03-08T02:43:18;4.90;99.90
20102;DHT22;10210;52.284;9.892;2024-03-08T02:45:45;4.90;99.90
20102;DHT22;10210;52.284;9.892;2024-03-08T02:48:12;4.90;99.90
20102;DHT22;10210;52.284;9.892;2024-03-08T02:50:38;4.90;99.90
20102;DHT22;10210;52.284;9.892;2024-03-08T02:53:11;4.80;99.90
20102;DHT22;10210;52.284;9.892;2024-03-08T02:55:41;4.80;99.90
20102;DHT22;10210;52.284;9.892;2024-03-08T02:58:07;4.80;99.90
20102;DHT22;10210;52.284;9.892;2024-03-08T03:00:37;4.80;99.90
20102;DHT22;10210;52.284;9.892;2024-03-08T03:03:07;4.80;99.90
20102;DHT22;10210;52.284;9.892;2024-03-08T03:05:33;4.80;99.90
20102;DHT22;10210;52.284;9.892;2024-03-08T03:07:59;4.80;99.90
20102;DHT22;10210;52.284;9.892;2024-03-08T03:10:25;4.80;99.90
20102;DHT22;10210;52.284;9.892;2024-03-08T03:12:51;4.80;99.90
20102;DHT22;10210;52.284;9.892;2024-03-08T03:15:18;4.80;99.90
20102;DHT22;10210;52.284;9.892;2024-03-08T03:17:48;4.80;99.90
20102;DHT22;10210;52.284;9.892;2024-03-08T03:20:18;4.80;99.90
20102;DHT22;10210;52.284;9.892;2024-03-08T03:22:58;4.80;99.90
20102;DHT22;10210;52.284;9.892;2024-03-08T03:25:26;4.70;99.90
20102;DHT22;10210;52.284;9.892;2024-03-08T03:27:58;4.70;99.90
20102;DHT22;10210;52.284;9.892;2024-03-08T03:30:24;4.70;99.90
20102;DHT22;10210;52.284;9.892;2024-03-08T03:32:52;4.70;99.90
20102;DHT22;10210;52.284;9.892;2024-03-08T03:35:20;4.70;99.90
20102;DHT22;10210;52.284;9.892;2024-03-08T03:37:47;4.70;99.90
20102;DHT22;10210;52.284;9.892;2024-03-08T03:40:35;4.70;99.90
20102;DHT22;10210;52.284;9.892;2024-03-08T03:43:05;4.60;99.90
20102;DHT22;10210;52.284;9.892;2024-03-08T03:45:31;4.60;99.90
20102;DHT22;10210;52.284;9.892;2024-03-08T03:48:01;4.60;99.90
20102;DHT22;10210;52.284;9.892;2024-03-08T03:50:32;4.60;99.90
20102;DHT22;10210;52.284;9.892;2024-03-08T03:52:59;4.50;99.90
20102;DHT22;10210;52.284;9.892;2024-03-08T03:55:25;4.50;99.90
20102;DHT22;10210;52.284;9.892;2024-03-08T03:57:52;4.50;99.90
20102;DHT22;10210;52.284;9.892;2024-03-08T04:00:18;4.50;99.90
20102;DHT22;10210;52.284;9.892;2024-03-08T04:02:44;4.50;99.90
20102;DHT22;10210;52.284;9.892;2024-03-08T04:05:11;4.40;99.90
20102;DHT22;10210;52.284;9.892;2024-03-08T04:07:38;4.40;99.90
20102;DHT22;10210;52.284;9.892;2024-03-08T04:10:05;4.40;99.90
20102;DHT22;10210;52.284;9.892;2024-03-08T04:12:36;4.40;99.90
20102;DHT22;10210;52.284;9.892;2024-03-08T04:15:01;4.40;99.90
20102;DHT22;10210;52.284;9.892;2024-03-08T04:17:27;4.30;99.90
20102;DHT22;10210;52.284;9.892;2024-03-08T04:19:53;4.30;99.90
20102;DHT22;10210;52.284;9.892;2024-03-08T04:22:19;4.40;99.90
20102;DHT22;10210;52.284;9.892;2024-03-08T04:24:46;4.30;99.90
20102;DHT22;10210;52.284;9.892;2024-03-08T04:27:12;4.30;99.90
20102;DHT22;10210;52.284;9.892;2024-03-08T04:29:39;4.30;99.90
20102;DHT22;10210;52.284;9.892;2024-03-08T04:32:06;4.30;99.90
20102;DHT22;10210;52.284;9.892;2024-03-08T04:34:32;4.30;99.90
20102;DHT22;10210;52.284;9.892;2024-03-08T04:37:00;4.30;99.90
20102;DHT22;10210;52.284;9.892;2024-03-08T04:39:31;4.30;99.90
20102;DHT22;10210;52.284;9.892;2024-03-08T04:41:59;4.30;99.90
20102;DHT22;10210;52.284;9.892;2024-03-08T04:44:36;4.30;99.90
20102;DHT22;10210;52.284;9.892;2024-03-08T04:47:03;4.30;99.90
20102;DHT22;10210;52.284;9.892;2024-03-08T04:49:32;4.30;99.90
20102;DHT22;10210;52.284;9.892;2024-03-08T04:52:03;4.20;99.90
20102;DHT22;10210;52.284;9.892;2024-03-08T04:54:31;4.20;99.90
20102;DHT22;10210;52.284;9.892;2024-03-08T04:56:57;4.20;99.90
20102;DHT22;10210;52.284;9.892;2024-03-08T04:59:23;4.20;99.90
20102;DHT22;10210;52.284;9.892;2024-03-08T05:01:49;4.20;99.90
20102;DHT22;10210;52.284;9.892;2024-03-08T05:04:16;4.20;99.90
20102;DHT22;10210;52.284;9.892;2024-03-08T05:06:41;4.10;99.90
20102;DHT22;10210;52.284;9.892;2024-03-08T05:09:07;4.10;99.90
20102;DHT22;10210;52.284;9.892;2024-03-08T05:11:40;4.10;99.90
20102;DHT22;10210;52.284;9.892;2024-03-08T05:14:06;4.00;99.90
20102;DHT22;10210;52.284;9.892;2024-03-08T05:16:32;4.00;99.90
20102;DHT22;10210;52.284;9.892;2024-03-08T05:18:58;4.00;99.90
20102;DHT22;10210;52.284;9.892;2024-03-08T05:21:23;4.00;99.90
20102;DHT22;10210;52.284;9.892;2024-03-08T05:23:50;4.00;99.90
20102;DHT22;10210;52.284;9.892;2024-03-08T05:26:17;3.90;99.90
20102;DHT22;10210;52.284;9.892;2024-03-08T05:28:43;3.90;99.90
20102;DHT22;10210;52.284;9.892;2024-03-08T05:31:08;3.80;99.90
20102;DHT22;10210;52.284;9.892;2024-03-08T05:33:34;3.80;99.90
20102;DHT22;10210;52.284;9.892;2024-03-08T05:36:00;3.70;99.90
20102;DHT22;10210;52.284;9.892;2024-03-08T05:38:27;3.70;99.90
20102;DHT22;10210;52.284;9.892;2024-03-08T05:40:53;3.60;99.90
20102;DHT22;10210;52.284;9.892;2024-03-08T05:43:20;3.60;99.90
20102;DHT22;10210;52.284;9.892;2024-03-08T05:45:46;3.50;99.90
20102;DHT22;10210;52.284;9.892;2024-03-08T05:48:13;3.50;99.90
20102;DHT22;10210;52.284;9.892;2024-03-08T05:50:39;3.50;99.90
20102;DHT22;10210;52.284;9.892;2024-03-08T05:53:05;3.50;99.90
20102;DHT22;10210;52.284;9.892;2024-03-08T05:55:35;3.40;99.90
20102;DHT22;10210;52.284;9.892;2024-03-08T05:58:01;3.40;99.90
20102;DHT22;10210;52.284;9.892;2024-03-08T06:00:29;3.40;99.90
20102;DHT22;10210;52.284;9.892;2024-03-08T06:02:56;3.40;99.90
20102;DHT22;10210;52.284;9.892;2024-03-08T06:05:24;3.30;99.90
20102;DHT22;10210;52.284;9.892;2024-03-08T06:07:50;3.30;99.90
20102;DHT22;10210;52.284;9.892;2024-03-08T06:10:18;3.40;99.90
20102;DHT22;10210;52.284;9.892;2024-03-08T06:12:44;3.40;99.90
20102;DHT22;10210;52.284;9.892;2024-03-08T06:15:10;3.40;99.90
20102;DHT22;10210;52.284;9.892;2024-03-08T06:17:42;3.40;99.90
20102;DHT22;10210;52.284;9.892;2024-03-08T06:20:08;3.40;99.90
20102;DHT22;10210;52.284;9.892;2024-03-08T06:22:41;3.40;99.90
20102;DHT22;10210;52.284;9.892;2024-03-08T06:25:10;3.50;99.90
20102;DHT22;10210;52.284;9.892;2024-03-08T06:27:42;3.50;99.90
20102;DHT22;10210;52.284;9.892;2024-03-08T06:30:09;3.50;99.90
20102;DHT22;10210;52.284;9.892;2024-03-08T06:32:39;3.50;99.90
20102;DHT22;10210;52.284;9.892;2024-03-08T06:35:05;3.60;99.90
20102;DHT22;10210;52.284;9.892;2024-03-08T06:37:34;3.60;99.90
20102;DHT22;10210;52.284;9.892;2024-03-08T06:40:00;3.60;99.90
20102;DHT22;10210;52.284;9.892;2024-03-08T06:42:27;3.60;99.90
20102;DHT22;10210;52.284;9.892;2024-03-08T06:45:02;3.60;99.90
20102;DHT22;10210;52.284;9.892;2024-03-08T06:47:32;3.70;99.90
20102;DHT22;10210;52.284;9.892;2024-03-08T06:49:58;3.60;99.90
20102;DHT22;10210;52.284;9.892;2024-03-08T06:52:24;3.70;99.90
20102;DHT22;10210;52.284;9.892;2024-03-08T06:54:50;3.70;99.90
20102;DHT22;10210;52.284;9.892;2024-03-08T06:57:19;3.70;99.90
20102;DHT22;10210;52.284;9.892;2024-03-08T06:59:47;3.80;99.90
20102;DHT22;10210;52.284;9.892;2024-03-08T07:02:14;3.80;99.90
20102;DHT22;10210;52.284;9.892;2024-03-08T07:04:39;3.80;99.90
20102;DHT22;10210;52.284;9.892;2024-03-08T07:07:05;3.90;99.90
20102;DHT22;10210;52.284;9.892;2024-03-08T07:09:33;3.90;99.90
20102;DHT22;10210;52.284;9.892;2024-03-08T07:11:58;3.90;99.90
20102;DHT22;10210;52.284;9.892;2024-03-08T07:14:24;3.90;99.90
20102;DHT22;10210;52.284;9.892;2024-03-08T07:16:50;3.90;99.90
20102;DHT22;10210;52.284;9.892;2024-03-08T07:19:16;3.90;99.90
20102;DHT22;10210;52.284;9.892;2024-03-08T07:21:44;4.00;99.90
20102;DHT22;10210;52.284;9.892;2024-03-08T07:24:10;4.00;99.90
20102;DHT22;10210;52.284;9.892;2024-03-08T07:26:43;4.00;99.90
20102;DHT22;10210;52.284;9.892;2024-03-08T07:29:09;4.10;99.90
20102;DHT22;10210;52.284;9.892;2024-03-08T07:31:35;4.10;99.90
20102;DHT22;10210;52.284;9.892;2024-03-08T07:34:18;4.10;99.90
20102;DHT22;10210;52.284;9.892;2024-03-08T07:36:44;4.20;99.90
20102;DHT22;10210;52.284;9.892;2024-03-08T07:39:10;4.20;99.90
20102;DHT22;10210;52.284;9.892;2024-03-08T07:41:39;4.20;99.90
20102;DHT22;10210;52.284;9.892;2024-03-08T07:44:09;4.30;99.90
20102;DHT22;10210;52.284;9.892;2024-03-08T07:46:34;4.30;99.90
20102;DHT22;10210;52.284;9.892;2024-03-08T07:49:00;4.40;99.90
20102;DHT22;10210;52.284;9.892;2024-03-08T07:51:26;4.40;99.90
20102;DHT22;10210;52.284;9.892;2024-03-08T07:53:52;4.50;99.90
20102;DHT22;10210;52.284;9.892;2024-03-08T07:56:17;4.50;99.90
20102;DHT22;10210;52.284;9.892;2024-03-08T07:58:44;4.60;99.90
20102;DHT22;10210;52.284;9.892;2024-03-08T08:01:19;4.60;99.90
20102;DHT22;10210;52.284;9.892;2024-03-08T08:03:45;4.70;99.90
20102;DHT22;10210;52.284;9.892;2024-03-08T08:06:11;4.70;99.90
20102;DHT22;10210;52.284;9.892;2024-03-08T08:08:43;4.80;99.90
20102;DHT22;10210;52.284;9.892;2024-03-08T08:11:09;4.80;99.90
20102;DHT22;10210;52.284;9.892;2024-03-08T08:13:35;4.90;99.90
20102;DHT22;10210;52.284;9.892;2024-03-08T08:16:02;5.00;99.90
20102;DHT22;10210;52.284;9.892;2024-03-08T08:18:28;5.20;99.90
20102;DHT22;10210;52.284;9.892;2024-03-08T08:20:56;5.30;99.90
20102;DHT22;10210;52.284;9.892;2024-03-08T08:23:21;5.60;99.90
20102;DHT22;10210;52.284;9.892;2024-03-08T08:25:47;5.90;99.90
20102;DHT22;10210;52.284;9.892;2024-03-08T08:28:18;6.10;99.90
20102;DHT22;10210;52.284;9.892;2024-03-08T08:30:44;6.40;99.90
20102;DHT22;10210;52.284;9.892;2024-03-08T08:33:10;6.70;99.90
20102;DHT22;10210;52.284;9.892;2024-03-08T08:35:37;6.90;99.90
20102;DHT22;10210;52.284;9.892;2024-03-08T08:38:05;7.10;99.90
20102;DHT22;10210;52.284;9.892;2024-03-08T08:40:33;7.30;99.90
20102;DHT22;10210;52.284;9.892;2024-03-08T08:42:59;7.40;99.90
20102;DHT22;10210;52.284;9.892;2024-03-08T08:45:25;7.60;99.90
20102;DHT22;10210;52.284;9.892;2024-03-08T08:47:52;7.70;99.90
20102;DHT22;10210;52.284;9.892;2024-03-08T08:50:18;7.80;99.90
20102;DHT22;10210;52.284;9.892;2024-03-08T08:52:49;8.00;99.90
20102;DHT22;10210;52.284;9.892;2024-03-08T08:55:15;8.20;99.90
20102;DHT22;10210;52.284;9.892;2024-03-08T08:57:41;8.20;99.90
20102;DHT22;10210;52.284;9.892;2024-03-08T09:00:07;8.40;99.90
20102;DHT22;10210;52.284;9.892;2024-03-08T09:02:37;8.50;99.90
20102;DHT22;10210;52.284;9.892;2024-03-08T09:05:03;8.50;99.90
20102;DHT22;10210;52.284;9.892;2024-03-08T09:07:31;8.60;99.90
20102;DHT22;10210;52.284;9.892;2024-03-08T09:09:57;8.80;99.90
20102;DHT22;10210;52.284;9.892;2024-03-08T09:12:24;8.80;99.90
20102;DHT22;10210;52.284;9.892;2024-03-08T09:14:50;8.90;99.90
20102;DHT22;10210;52.284;9.892;2024-03-08T09:17:16;9.00;99.90
20102;DHT22;10210;52.284;9.892;2024-03-08T09:19:47;9.10;99.90
20102;DHT22;10210;52.284;9.892;2024-03-08T09:22:15;9.20;99.90
20102;DHT22;10210;52.284;9.892;2024-03-08T09:24:41;9.30;99.90
20102;DHT22;10210;52.284;9.892;2024-03-08T09:27:08;9.30;99.90
20102;DHT22;10210;52.284;9.892;2024-03-08T09:29:35;9.40;99.90
20102;DHT22;10210;52.284;9.892;2024-03-08T09:32:01;9.50;99.90
20102;DHT22;10210;52.284;9.892;2024-03-08T09:34:28;9.60;99.90
20102;DHT22;10210;52.284;9.892;2024-03-08T09:36:53;9.60;99.90
20102;DHT22;10210;52.284;9.892;2024-03-08T09:39:20;9.60;99.90
20102;DHT22;10210;52.284;9.892;2024-03-08T09:41:49;9.70;99.90
20102;DHT22;10210;52.284;9.892;2024-03-08T09:44:16;9.70;99.90
20102;DHT22;10210;52.284;9.892;2024-03-08T09:46:42;9.70;99.90
20102;DHT22;10210;52.284;9.892;2024-03-08T09:49:08;9.80;99.90
20102;DHT22;10210;52.284;9.892;2024-03-08T09:51:34;9.80;99.90
20102;DHT22;10210;52.284;9.892;2024-03-08T09:54:02;9.80;99.90
20102;DHT22;10210;52.284;9.892;2024-03-08T09:56:35;9.90;99.90
20102;DHT22;10210;52.284;9.892;2024-03-08T09:59:02;9.90;99.90
20102;DHT22;10210;52.284;9.892;2024-03-08T10:02:00;10.00;99.90
20102;DHT22;10210;52.284;9.892;2024-03-08T10:04:29;10.00;99.90
20102;DHT22;10210;52.284;9.892;2024-03-08T10:06:58;10.00;99.90
20102;DHT22;10210;52.284;9.892;2024-03-08T10:09:27;10.00;99.90
20102;DHT22;10210;52.284;9.892;2024-03-08T10:11:59;10.10;99.90
20102;DHT22;10210;52.284;9.892;2024-03-08T10:14:28;10.10;99.90
20102;DHT22;10210;52.284;9.892;2024-03-08T10:16:54;10.00;99.90
20102;DHT22;10210;52.284;9.892;2024-03-08T10:19:21;10.00;99.90
20102;DHT22;10210;52.284;9.892;2024-03-08T10:21:51;10.10;99.90
20102;DHT22;10210;52.284;9.892;2024-03-08T10:24:22;10.00;99.90
20102;DHT22;10210;52.284;9.892;2024-03-08T10:26:58;10.00;99.90
20102;DHT22;10210;52.284;9.892;2024-03-08T10:29:33;10.00;99.90
20102;DHT22;10210;52.284;9.892;2024-03-08T10:31:59;10.00;99.90
20102;DHT22;10210;52.284;9.892;2024-03-08T10:34:28;10.00;99.90
20102;DHT22;10210;52.284;9.892;2024-03-08T10:37:02;9.90;99.90
20102;DHT22;10210;52.284;9.892;2024-03-08T10:39:34;9.90;99.90
20102;DHT22;10210;52.284;9.892;2024-03-08T10:42:03;9.80;99.90
20102;DHT22;10210;52.284;9.892;2024-03-08T10:47:15;9.80;99.90
20102;DHT22;10210;52.284;9.892;2024-03-08T10:49:51;9.70;99.90
20102;DHT22;10210;52.284;9.892;2024-03-08T10:52:21;9.70;99.90
20102;DHT22;10210;52.284;9.892;2024-03-08T10:54:48;9.70;99.90
20102;DHT22;10210;52.284;9.892;2024-03-08T10:57:18;9.70;99.90
20102;DHT22;10210;52.284;9.892;2024-03-08T10:59:47;9.60;99.90
20102;DHT22;10210;52.284;9.892;2024-03-08T11:02:17;9.60;99.90
20102;DHT22;10210;52.284;9.892;2024-03-08T11:04:50;9.60;99.90
20102;DHT22;10210;52.284;9.892;2024-03-08T11:07:16;9.60;99.90
20102;DHT22;10210;52.284;9.892;2024-03-08T11:09:47;9.60;99.90
20102;DHT22;10210;52.284;9.892;2024-03-08T11:12:28;9.60;99.90
20102;DHT22;10210;52.284;9.892;2024-03-08T11:15:13;9.60;99.90
20102;DHT22;10210;52.284;9.892;2024-03-08T11:17:45;9.60;99.90
20102;DHT22;10210;52.284;9.892;2024-03-08T11:20:15;9.70;99.90
20102;DHT22;10210;52.284;9.892;2024-03-08T11:22:53;9.70;99.90
20102;DHT22;10210;52.284;9.892;2024-03-08T11:28:15;9.70;99.90
20102;DHT22;10210;52.284;9.892;2024-03-08T11:30:45;9.80;99.90
20102;DHT22;10210;52.284;9.892;2024-03-08T11:33:32;9.80;99.90
20102;DHT22;10210;52.284;9.892;2024-03-08T11:36:23;9.90;99.90
20102;DHT22;10210;52.284;9.892;2024-03-08T11:38:50;9.90;99.90
20102;DHT22;10210;52.284;9.892;2024-03-08T11:41:19;10.00;99.90
20102;DHT22;10210;52.284;9.892;2024-03-08T11:43:47;10.00;99.90
20102;DHT22;10210;52.284;9.892;2024-03-08T11:46:17;10.00;99.90
20102;DHT22;10210;52.284;9.892;2024-03-08T11:48:44;10.00;99.90
20102;DHT22;10210;52.284;9.892;2024-03-08T11:51:14;10.10;99.90
20102;DHT22;10210;52.284;9.892;2024-03-08T11:53:42;10.10;99.90
20102;DHT22;10210;52.284;9.892;2024-03-08T11:56:11;10.10;99.90
20102;DHT22;10210;52.284;9.892;2024-03-08T11:58:39;10.20;99.90
20102;DHT22;10210;52.284;9.892;2024-03-08T12:01:09;10.20;99.90
20102;DHT22;10210;52.284;9.892;2024-03-08T12:03:42;10.30;99.90
20102;DHT22;10210;52.284;9.892;2024-03-08T12:06:09;10.30;99.90
20102;DHT22;10210;52.284;9.892;2024-03-08T12:08:36;10.40;99.90
20102;DHT22;10210;52.284;9.892;2024-03-08T12:11:08;10.40;99.90
20102;DHT22;10210;52.284;9.892;2024-03-08T12:13:36;10.40;99.90
20102;DHT22;10210;52.284;9.892;2024-03-08T12:16:03;10.50;99.90
20102;DHT22;10210;52.284;9.892;2024-03-08T12:18:38;10.50;99.90
20102;DHT22;10210;52.284;9.892;2024-03-08T12:21:13;10.60;99.90
20102;DHT22;10210;52.284;9.892;2024-03-08T12:23:43;10.60;99.90
20102;DHT22;10210;52.284;9.892;2024-03-08T12:26:24;10.60;99.90
20102;DHT22;10210;52.284;9.892;2024-03-08T12:28:52;10.70;99.90
20102;DHT22;10210;52.284;9.892;2024-03-08T12:31:19;10.70;99.90
20102;DHT22;10210;52.284;9.892;2024-03-08T12:33:53;10.70;99.90
20102;DHT22;10210;52.284;9.892;2024-03-08T12:36:21;10.80;99.90
20102;DHT22;10210;52.284;9.892;2024-03-08T12:38:49;10.80;99.90
20102;DHT22;10210;52.284;9.892;2024-03-08T12:41:18;10.90;99.90
20102;DHT22;10210;52.284;9.892;2024-03-08T12:43:46;10.90;99.90
20102;DHT22;10210;52.284;9.892;2024-03-08T12:46:20;10.90;99.90
20102;DHT22;10210;52.284;9.892;2024-03-08T12:48:48;10.90;99.90
20102;DHT22;10210;52.284;9.892;2024-03-08T12:51:16;11.00;99.90
20102;DHT22;10210;52.284;9.892;2024-03-08T12:53:43;11.00;99.90
20102;DHT22;10210;52.284;9.892;2024-03-08T12:56:15;11.00;99.90
20102;DHT22;10210;52.284;9.892;2024-03-08T12:58:53;11.00;99.90
20102;DHT22;10210;52.284;9.892;2024-03-08T13:01:19;11.00;99.90
20102;DHT22;10210;52.284;9.892;2024-03-08T13:03:46;11.10;99.90
20102;DHT22;10210;52.284;9.892;2024-03-08T13:06:11;11.10;99.90
20102;DHT22;10210;52.284;9.892;2024-03-08T13:08:38;11.10;99.90
20102;DHT22;10210;52.284;9.892;2024-03-08T13:11:07;11.10;99.90
20102;DHT22;10210;52.284;9.892;2024-03-08T13:13:33;11.20;99.90
20102;DHT22;10210;52.284;9.892;2024-03-08T13:16:03;11.20;99.90
20102;DHT22;10210;52.284;9.892;2024-03-08T13:18:33;11.20;99.90
20102;DHT22;10210;52.284;9.892;2024-03-08T13:21:00;11.30;99.90
20102;DHT22;10210;52.284;9.892;2024-03-08T13:23:31;11.30;99.90
20102;DHT22;10210;52.284;9.892;2024-03-08T13:25:57;11.30;99.90
20102;DHT22;10210;52.284;9.892;2024-03-08T13:28:24;11.30;99.90
20102;DHT22;10210;52.284;9.892;2024-03-08T13:30:55;11.30;99.90
20102;DHT22;10210;52.284;9.892;2024-03-08T13:33:23;11.30;99.90
20102;DHT22;10210;52.284;9.892;2024-03-08T13:35:49;11.40;99.90
20102;DHT22;10210;52.284;9.892;2024-03-08T13:38:17;11.40;99.90
20102;DHT22;10210;52.284;9.892;2024-03-08T13:40:46;11.40;99.90
20102;DHT22;10210;52.284;9.892;2024-03-08T13:43:18;11.40;99.90
20102;DHT22;10210;52.284;9.892;2024-03-08T13:45:43;11.40;99.90
20102;DHT22;10210;52.284;9.892;2024-03-08T13:48:10;11.40;99.90
20102;DHT22;10210;52.284;9.892;2024-03-08T13:50:38;11.30;99.90
20102;DHT22;10210;52.284;9.892;2024-03-08T13:53:05;11.30;99.90
20102;DHT22;10210;52.284;9.892;2024-03-08T13:55:31;11.30;99.90
20102;DHT22;10210;52.284;9.892;2024-03-08T13:57:59;11.30;99.90
20102;DHT22;10210;52.284;9.892;2024-03-08T14:00:25;11.30;99.90
20102;DHT22;10210;52.284;9.892;2024-03-08T14:02:53;11.40;99.90
20102;DHT22;10210;52.284;9.892;2024-03-08T14:05:22;11.30;99.90
20102;DHT22;10210;52.284;9.892;2024-03-08T14:07:49;11.30;99.90
20102;DHT22;10210;52.284;9.892;2024-03-08T14:10:15;11.30;99.90
20102;DHT22;10210;52.284;9.892;2024-03-08T14:12:43;11.30;99.90
20102;DHT22;10210;52.284;9.892;2024-03-08T14:15:09;11.30;99.90
20102;DHT22;10210;52.284;9.892;2024-03-08T14:17:36;11.30;99.90
20102;DHT22;10210;52.284;9.892;2024-03-08T14:20:03;11.40;99.90
20102;DHT22;10210;52.284;9.892;2024-03-08T14:22:30;11.30;99.90
20102;DHT22;10210;52.284;9.892;2024-03-08T14:24:57;11.30;99.90
20102;DHT22;10210;52.284;9.892;2024-03-08T14:27:22;11.30;99.90
20102;DHT22;10210;52.284;9.892;2024-03-08T14:29:49;11.40;99.90
20102;DHT22;10210;52.284;9.892;2024-03-08T14:32:15;11.30;99.90
20102;DHT22;10210;52.284;9.892;2024-03-08T14:34:42;11.30;99.90
20102;DHT22;10210;52.284;9.892;2024-03-08T14:37:09;11.30;99.90
20102;DHT22;10210;52.284;9.892;2024-03-08T14:39:37;11.30;99.90
20102;DHT22;10210;52.284;9.892;2024-03-08T14:42:03;11.30;99.90
20102;DHT22;10210;52.284;9.892;2024-03-08T14:44:28;11.30;99.90
20102;DHT22;10210;52.284;9.892;2024-03-08T14:46:59;11.30;99.90
20102;DHT22;10210;52.284;9.892;2024-03-08T14:49:25;11.30;99.90
20102;DHT22;10210;52.284;9.892;2024-03-08T14:51:55;11.30;99.90
20102;DHT22;10210;52.284;9.892;2024-03-08T14:54:23;11.30;99.90
20102;DHT22;10210;52.284;9.892;2024-03-08T14:56:50;11.30;99.90
20102;DHT22;10210;52.284;9.892;2024-03-08T14:59:16;11.30;99.90
20102;DHT22;10210;52.284;9.892;2024-03-08T15:01:42;11.30;99.90
20102;DHT22;10210;52.284;9.892;2024-03-08T15:04:09;11.30;99.90
20102;DHT22;10210;52.284;9.892;2024-03-08T15:06:39;11.30;99.90
20102;DHT22;10210;52.284;9.892;2024-03-08T15:09:08;11.30;99.90
20102;DHT22;10210;52.284;9.892;2024-03-08T15:11:47;11.30;99.90
20102;DHT22;10210;52.284;9.892;2024-03-08T15:14:15;11.30;99.90
20102;DHT22;10210;52.284;9.892;2024-03-08T15:16:44;11.30;99.90
20102;DHT22;10210;52.284;9.892;2024-03-08T15:19:13;11.30;99.90
20102;DHT22;10210;52.284;9.892;2024-03-08T15:21:41;11.30;99.90
20102;DHT22;10210;52.284;9.892;2024-03-08T15:24:11;11.30;99.90
20102;DHT22;10210;52.284;9.892;2024-03-08T15:26:48;11.30;99.90
20102;DHT22;10210;52.284;9.892;2024-03-08T15:29:16;11.30;99.90
20102;DHT22;10210;52.284;9.892;2024-03-08T15:31:49;11.30;99.90
20102;DHT22;10210;52.284;9.892;2024-03-08T15:34:17;11.30;99.90
20102;DHT22;10210;52.284;9.892;2024-03-08T15:36:48;11.20;99.90
20102;DHT22;10210;52.284;9.892;2024-03-08T15:39:16;11.30;99.90
20102;DHT22;10210;52.284;9.892;2024-03-08T15:41:49;11.20;99.90
20102;DHT22;10210;52.284;9.892;2024-03-08T15:44:14;11.20;99.90
20102;DHT22;10210;52.284;9.892;2024-03-08T15:46:42;11.20;99.90
20102;DHT22;10210;52.284;9.892;2024-03-08T15:49:08;11.20;99.90
20102;DHT22;10210;52.284;9.892;2024-03-08T15:51:34;11.20;99.90
20102;DHT22;10210;52.284;9.892;2024-03-08T15:54:02;11.20;99.90